sensor_id;sensor_type;location;lat;lon;timestamp;P1;durP1;ratioP1;P2;durP2;ratioP2
75691;SDS011;64307;52.508;6.090;2023-01-01T00:02:02;19.13;;;8.00;;
75691;SDS011;64307;52.508;6.090;2023-01-01T00:04:27;21.10;;;8.40;;
75691;SDS011;64307;52.508;6.090;2023-01-01T00:06:52;17.92;;;6.60;;
75691;SDS011;64307;52.508;6.090;2023-01-01T00:09:18;16.33;;;7.20;;
75691;SDS011;64307;52.508;6.090;2023-01-01T00:12:02;16.52;;;7.35;;
75691;SDS011;64307;52.508;6.090;2023-01-01T00:14:27;19.25;;;7.55;;
75691;SDS011;64307;52.508;6.090;2023-01-01T00:16:53;15.95;;;8.10;;
75691;SDS011;64307;52.508;6.090;2023-01-01T00:19:19;17.63;;;7.82;;
75691;SDS011;64307;52.508;6.090;2023-01-01T00:21:45;17.88;;;8.52;;
75691;SDS011;64307;52.508;6.090;2023-01-01T00:24:10;18.60;;;9.00;;
75691;SDS011;64307;52.508;6.090;2023-01-01T00:26:37;17.38;;;9.45;;
75691;SDS011;64307;52.508;6.090;2023-01-01T00:29:02;19.17;;;9.40;;
75691;SDS011;64307;52.508;6.090;2023-01-01T00:31:28;20.13;;;10.32;;
75691;SDS011;64307;52.508;6.090;2023-01-01T00:33:54;20.63;;;10.30;;
75691;SDS011;64307;52.508;6.090;2023-01-01T00:36:20;19.85;;;11.27;;
75691;SDS011;64307;52.508;6.090;2023-01-01T00:38:48;20.63;;;9.70;;
75691;SDS011;64307;52.508;6.090;2023-01-01T00:41:14;20.98;;;10.57;;
75691;SDS011;64307;52.508;6.090;2023-01-01T00:43:40;21.10;;;10.13;;
75691;SDS011;64307;52.508;6.090;2023-01-01T00:46:07;21.90;;;10.52;;
75691;SDS011;64307;52.508;6.090;2023-01-01T00:48:33;24.75;;;11.07;;
75691;SDS011;64307;52.508;6.090;2023-01-01T00:50:59;22.58;;;11.13;;
75691;SDS011;64307;52.508;6.090;2023-01-01T00:53:24;23.77;;;10.25;;
75691;SDS011;64307;52.508;6.090;2023-01-01T00:55:49;19.02;;;9.20;;
75691;SDS011;64307;52.508;6.090;2023-01-01T00:58:16;17.55;;;9.00;;
75691;SDS011;64307;52.508;6.090;2023-01-01T01:00:43;17.67;;;7.85;;
75691;SDS011;64307;52.508;6.090;2023-01-01T01:03:09;14.35;;;8.35;;
75691;SDS011;64307;52.508;6.090;2023-01-01T01:05:51;22.02;;;8.48;;
75691;SDS011;64307;52.508;6.090;2023-01-01T01:08:27;14.43;;;7.82;;
75691;SDS011;64307;52.508;6.090;2023-01-01T01:10:54;17.25;;;7.53;;
75691;SDS011;64307;52.508;6.090;2023-01-01T01:13:20;17.38;;;7.43;;
75691;SDS011;64307;52.508;6.090;2023-01-01T01:15:46;18.98;;;8.63;;
75691;SDS011;64307;52.508;6.090;2023-01-01T01:18:12;15.63;;;8.32;;
75691;SDS011;64307;52.508;6.090;2023-01-01T01:20:37;18.02;;;8.90;;
75691;SDS011;64307;52.508;6.090;2023-01-01T01:23:03;17.52;;;8.60;;
75691;SDS011;64307;52.508;6.090;2023-01-01T01:25:28;18.08;;;7.95;;
75691;SDS011;64307;52.508;6.090;2023-01-01T01:27:54;16.90;;;8.50;;
75691;SDS011;64307;52.508;6.090;2023-01-01T01:30:19;19.20;;;8.50;;
75691;SDS011;64307;52.508;6.090;2023-01-01T01:32:44;13.32;;;8.20;;
75691;SDS011;64307;52.508;6.090;2023-01-01T01:35:11;18.00;;;8.60;;
75691;SDS011;64307;52.508;6.090;2023-01-01T01:37:36;18.80;;;8.00;;
75691;SDS011;64307;52.508;6.090;2023-01-01T01:40:02;17.63;;;7.70;;
75691;SDS011;64307;52.508;6.090;2023-01-01T01:42:27;19.27;;;7.45;;
75691;SDS011;64307;52.508;6.090;2023-01-01T01:44:54;17.52;;;6.60;;
75691;SDS011;64307;52.508;6.090;2023-01-01T01:47:36;14.40;;;7.10;;
75691;SDS011;64307;52.508;6.090;2023-01-01T01:55:22;15.87;;;5.90;;
75691;SDS011;64307;52.508;6.090;2023-01-01T01:57:50;14.98;;;5.65;;
75691;SDS011;64307;52.508;6.090;2023-01-01T02:00:15;10.40;;;5.13;;
75691;SDS011;64307;52.508;6.090;2023-01-01T02:02:44;15.75;;;4.72;;
75691;SDS011;64307;52.508;6.090;2023-01-01T02:05:15;13.32;;;5.05;;
75691;SDS011;64307;52.508;6.090;2023-01-01T02:07:43;11.35;;;4.40;;
75691;SDS011;64307;52.508;6.090;2023-01-01T02:10:09;13.02;;;5.43;;
75691;SDS011;64307;52.508;6.090;2023-01-01T02:12:34;12.52;;;4.18;;
75691;SDS011;64307;52.508;6.090;2023-01-01T02:15:00;12.73;;;4.03;;
75691;SDS011;64307;52.508;6.090;2023-01-01T02:20:21;15.52;;;4.45;;
75691;SDS011;64307;52.508;6.090;2023-01-01T02:28:56;7.68;;;2.85;;
75691;SDS011;64307;52.508;6.090;2023-01-01T02:31:28;10.30;;;3.00;;
75691;SDS011;64307;52.508;6.090;2023-01-01T02:34:00;7.45;;;2.55;;
75691;SDS011;64307;52.508;6.090;2023-01-01T02:36:29;10.15;;;2.50;;
75691;SDS011;64307;52.508;6.090;2023-01-01T02:38:57;11.52;;;2.80;;
75691;SDS011;64307;52.508;6.090;2023-01-01T02:41:35;6.95;;;2.58;;
75691;SDS011;64307;52.508;6.090;2023-01-01T02:44:05;10.30;;;2.47;;
75691;SDS011;64307;52.508;6.090;2023-01-01T02:46:32;6.53;;;2.50;;
75691;SDS011;64307;52.508;6.090;2023-01-01T02:48:58;7.43;;;2.00;;
75691;SDS011;64307;52.508;6.090;2023-01-01T02:59:48;9.10;;;1.95;;
75691;SDS011;64307;52.508;6.090;2023-01-01T03:08:30;7.72;;;1.83;;
75691;SDS011;64307;52.508;6.090;2023-01-01T03:19:11;8.20;;;1.77;;
75691;SDS011;64307;52.508;6.090;2023-01-01T03:22:03;8.63;;;2.13;;
75691;SDS011;64307;52.508;6.090;2023-01-01T03:27:03;7.10;;;1.77;;
75691;SDS011;64307;52.508;6.090;2023-01-01T03:29:33;6.32;;;1.50;;
75691;SDS011;64307;52.508;6.090;2023-01-01T03:32:02;7.35;;;1.70;;
75691;SDS011;64307;52.508;6.090;2023-01-01T03:34:32;7.43;;;1.63;;
75691;SDS011;64307;52.508;6.090;2023-01-01T03:37:02;8.23;;;2.13;;
75691;SDS011;64307;52.508;6.090;2023-01-01T03:39:35;6.32;;;1.50;;
75691;SDS011;64307;52.508;6.090;2023-01-01T03:42:16;8.20;;;1.42;;
75691;SDS011;64307;52.508;6.090;2023-01-01T03:44:59;9.00;;;1.60;;
75691;SDS011;64307;52.508;6.090;2023-01-01T03:47:29;8.95;;;1.83;;
75691;SDS011;64307;52.508;6.090;2023-01-01T03:49:55;7.13;;;1.67;;
75691;SDS011;64307;52.508;6.090;2023-01-01T03:52:42;6.88;;;1.50;;
75691;SDS011;64307;52.508;6.090;2023-01-01T03:55:58;9.35;;;1.50;;
75691;SDS011;64307;52.508;6.090;2023-01-01T04:01:08;6.30;;;1.23;;
75691;SDS011;64307;52.508;6.090;2023-01-01T04:03:37;5.03;;;1.50;;
75691;SDS011;64307;52.508;6.090;2023-01-01T04:06:05;6.43;;;1.25;;
75691;SDS011;64307;52.508;6.090;2023-01-01T04:08:32;8.35;;;1.35;;
75691;SDS011;64307;52.508;6.090;2023-01-01T04:10:59;7.75;;;1.38;;
75691;SDS011;64307;52.508;6.090;2023-01-01T04:13:50;10.40;;;1.73;;
75691;SDS011;64307;52.508;6.090;2023-01-01T04:16:15;7.07;;;1.48;;
75691;SDS011;64307;52.508;6.090;2023-01-01T04:18:40;7.72;;;1.77;;
75691;SDS011;64307;52.508;6.090;2023-01-01T04:21:07;6.53;;;1.33;;
75691;SDS011;64307;52.508;6.090;2023-01-01T04:23:33;7.30;;;1.13;;
75691;SDS011;64307;52.508;6.090;2023-01-01T04:25:58;4.80;;;1.20;;
75691;SDS011;64307;52.508;6.090;2023-01-01T04:28:23;8.30;;;1.20;;
75691;SDS011;64307;52.508;6.090;2023-01-01T04:30:48;5.93;;;1.30;;
75691;SDS011;64307;52.508;6.090;2023-01-01T04:33:14;6.40;;;1.00;;
75691;SDS011;64307;52.508;6.090;2023-01-01T04:35:39;6.83;;;1.00;;
75691;SDS011;64307;52.508;6.090;2023-01-01T04:38:04;6.88;;;0.93;;
75691;SDS011;64307;52.508;6.090;2023-01-01T04:40:30;6.45;;;0.95;;
75691;SDS011;64307;52.508;6.090;2023-01-01T04:42:55;7.65;;;1.10;;
75691;SDS011;64307;52.508;6.090;2023-01-01T04:45:21;7.30;;;1.50;;
75691;SDS011;64307;52.508;6.090;2023-01-01T04:47:46;6.93;;;0.97;;
75691;SDS011;64307;52.508;6.090;2023-01-01T04:50:11;6.78;;;1.08;;
75691;SDS011;64307;52.508;6.090;2023-01-01T04:52:36;5.50;;;1.25;;
75691;SDS011;64307;52.508;6.090;2023-01-01T04:55:02;3.40;;;0.80;;
75691;SDS011;64307;52.508;6.090;2023-01-01T04:57:28;5.32;;;1.83;;
75691;SDS011;64307;52.508;6.090;2023-01-01T04:59:54;7.65;;;0.93;;
75691;SDS011;64307;52.508;6.090;2023-01-01T05:02:19;6.53;;;1.85;;
75691;SDS011;64307;52.508;6.090;2023-01-01T05:04:45;4.40;;;1.47;;
75691;SDS011;64307;52.508;6.090;2023-01-01T05:07:10;6.10;;;0.75;;
75691;SDS011;64307;52.508;6.090;2023-01-01T05:09:35;5.43;;;0.90;;
75691;SDS011;64307;52.508;6.090;2023-01-01T05:12:01;3.05;;;0.52;;
75691;SDS011;64307;52.508;6.090;2023-01-01T05:14:26;5.22;;;0.98;;
75691;SDS011;64307;52.508;6.090;2023-01-01T05:16:51;3.60;;;0.77;;
75691;SDS011;64307;52.508;6.090;2023-01-01T05:19:18;3.08;;;0.65;;
75691;SDS011;64307;52.508;6.090;2023-01-01T05:21:43;3.75;;;0.70;;
75691;SDS011;64307;52.508;6.090;2023-01-01T05:24:10;3.92;;;0.82;;
75691;SDS011;64307;52.508;6.090;2023-01-01T05:26:36;3.65;;;0.63;;
75691;SDS011;64307;52.508;6.090;2023-01-01T05:29:03;4.35;;;0.50;;
75691;SDS011;64307;52.508;6.090;2023-01-01T05:31:30;4.30;;;0.50;;
75691;SDS011;64307;52.508;6.090;2023-01-01T05:33:58;7.38;;;0.95;;
75691;SDS011;64307;52.508;6.090;2023-01-01T05:36:24;5.68;;;0.70;;
75691;SDS011;64307;52.508;6.090;2023-01-01T05:38:51;4.13;;;0.70;;
75691;SDS011;64307;52.508;6.090;2023-01-01T05:41:18;4.20;;;0.55;;
75691;SDS011;64307;52.508;6.090;2023-01-01T05:43:45;4.78;;;0.77;;
75691;SDS011;64307;52.508;6.090;2023-01-01T05:46:12;3.92;;;0.90;;
75691;SDS011;64307;52.508;6.090;2023-01-01T05:48:39;2.97;;;0.65;;
75691;SDS011;64307;52.508;6.090;2023-01-01T05:51:06;4.35;;;0.68;;
75691;SDS011;64307;52.508;6.090;2023-01-01T05:53:36;6.68;;;1.00;;
75691;SDS011;64307;52.508;6.090;2023-01-01T05:56:02;4.32;;;0.77;;
75691;SDS011;64307;52.508;6.090;2023-01-01T05:58:28;5.35;;;0.57;;
75691;SDS011;64307;52.508;6.090;2023-01-01T06:00:55;5.28;;;1.00;;
75691;SDS011;64307;52.508;6.090;2023-01-01T06:03:21;5.60;;;0.82;;
75691;SDS011;64307;52.508;6.090;2023-01-01T06:05:46;5.20;;;0.80;;
75691;SDS011;64307;52.508;6.090;2023-01-01T06:08:12;4.32;;;0.93;;
75691;SDS011;64307;52.508;6.090;2023-01-01T06:10:37;5.88;;;1.08;;
75691;SDS011;64307;52.508;6.090;2023-01-01T06:13:03;6.93;;;0.90;;
75691;SDS011;64307;52.508;6.090;2023-01-01T06:15:29;6.18;;;1.17;;
75691;SDS011;64307;52.508;6.090;2023-01-01T06:17:54;6.07;;;0.65;;
75691;SDS011;64307;52.508;6.090;2023-01-01T06:20:21;4.45;;;0.70;;
75691;SDS011;64307;52.508;6.090;2023-01-01T06:22:46;6.90;;;1.10;;
75691;SDS011;64307;52.508;6.090;2023-01-01T06:25:12;6.95;;;0.82;;
75691;SDS011;64307;52.508;6.090;2023-01-01T06:27:37;5.95;;;0.57;;
75691;SDS011;64307;52.508;6.090;2023-01-01T06:30:03;3.70;;;0.82;;
75691;SDS011;64307;52.508;6.090;2023-01-01T06:32:30;4.93;;;0.43;;
75691;SDS011;64307;52.508;6.090;2023-01-01T06:34:56;6.90;;;0.70;;
75691;SDS011;64307;52.508;6.090;2023-01-01T06:37:22;6.40;;;1.17;;
75691;SDS011;64307;52.508;6.090;2023-01-01T06:39:49;7.30;;;0.70;;
75691;SDS011;64307;52.508;6.090;2023-01-01T06:42:14;4.55;;;0.60;;
75691;SDS011;64307;52.508;6.090;2023-01-01T06:44:39;6.82;;;1.38;;
75691;SDS011;64307;52.508;6.090;2023-01-01T06:47:05;7.10;;;1.00;;
75691;SDS011;64307;52.508;6.090;2023-01-01T06:49:30;6.38;;;0.65;;
75691;SDS011;64307;52.508;6.090;2023-01-01T06:51:56;6.97;;;0.90;;
75691;SDS011;64307;52.508;6.090;2023-01-01T06:54:21;6.40;;;1.05;;
75691;SDS011;64307;52.508;6.090;2023-01-01T06:56:46;4.53;;;0.60;;
75691;SDS011;64307;52.508;6.090;2023-01-01T06:59:11;4.37;;;0.70;;
75691;SDS011;64307;52.508;6.090;2023-01-01T07:01:37;4.53;;;0.60;;
75691;SDS011;64307;52.508;6.090;2023-01-01T07:04:09;7.15;;;0.80;;
75691;SDS011;64307;52.508;6.090;2023-01-01T07:06:36;8.05;;;0.50;;
75691;SDS011;64307;52.508;6.090;2023-01-01T07:09:02;8.05;;;0.70;;
75691;SDS011;64307;52.508;6.090;2023-01-01T07:11:28;4.13;;;0.85;;
75691;SDS011;64307;52.508;6.090;2023-01-01T07:13:55;6.85;;;0.85;;
75691;SDS011;64307;52.508;6.090;2023-01-01T07:16:20;8.45;;;0.90;;
75691;SDS011;64307;52.508;6.090;2023-01-01T07:18:47;9.27;;;0.70;;
75691;SDS011;64307;52.508;6.090;2023-01-01T07:21:23;5.97;;;1.23;;
75691;SDS011;64307;52.508;6.090;2023-01-01T07:23:51;4.47;;;0.43;;
75691;SDS011;64307;52.508;6.090;2023-01-01T07:26:16;7.00;;;1.27;;
75691;SDS011;64307;52.508;6.090;2023-01-01T07:28:42;6.40;;;0.77;;
75691;SDS011;64307;52.508;6.090;2023-01-01T07:31:08;6.47;;;0.60;;
75691;SDS011;64307;52.508;6.090;2023-01-01T07:33:34;7.05;;;0.73;;
75691;SDS011;64307;52.508;6.090;2023-01-01T07:35:59;6.63;;;1.63;;
75691;SDS011;64307;52.508;6.090;2023-01-01T07:38:24;7.77;;;0.90;;
75691;SDS011;64307;52.508;6.090;2023-01-01T07:40:50;9.50;;;0.80;;
75691;SDS011;64307;52.508;6.090;2023-01-01T07:43:15;6.07;;;0.60;;
75691;SDS011;64307;52.508;6.090;2023-01-01T07:45:40;11.15;;;1.23;;
75691;SDS011;64307;52.508;6.090;2023-01-01T07:48:06;4.55;;;0.70;;
75691;SDS011;64307;52.508;6.090;2023-01-01T07:50:37;6.05;;;0.63;;
75691;SDS011;64307;52.508;6.090;2023-01-01T07:53:02;6.18;;;0.60;;
75691;SDS011;64307;52.508;6.090;2023-01-01T07:55:28;9.98;;;1.27;;
75691;SDS011;64307;52.508;6.090;2023-01-01T07:57:53;7.32;;;1.05;;
75691;SDS011;64307;52.508;6.090;2023-01-01T08:00:19;9.48;;;1.45;;
75691;SDS011;64307;52.508;6.090;2023-01-01T08:02:45;7.28;;;0.70;;
75691;SDS011;64307;52.508;6.090;2023-01-01T08:05:11;8.10;;;1.00;;
75691;SDS011;64307;52.508;6.090;2023-01-01T08:07:37;8.15;;;0.80;;
75691;SDS011;64307;52.508;6.090;2023-01-01T08:10:03;7.55;;;0.77;;
75691;SDS011;64307;52.508;6.090;2023-01-01T08:12:30;7.00;;;1.30;;
75691;SDS011;64307;52.508;6.090;2023-01-01T08:14:55;5.90;;;0.82;;
75691;SDS011;64307;52.508;6.090;2023-01-01T08:17:20;8.43;;;0.90;;
75691;SDS011;64307;52.508;6.090;2023-01-01T08:19:46;5.13;;;0.82;;
75691;SDS011;64307;52.508;6.090;2023-01-01T08:22:13;6.78;;;0.50;;
75691;SDS011;64307;52.508;6.090;2023-01-01T08:24:41;6.57;;;0.70;;
75691;SDS011;64307;52.508;6.090;2023-01-01T08:27:09;9.23;;;0.73;;
75691;SDS011;64307;52.508;6.090;2023-01-01T08:29:37;6.53;;;0.75;;
75691;SDS011;64307;52.508;6.090;2023-01-01T08:32:02;9.15;;;0.90;;
75691;SDS011;64307;52.508;6.090;2023-01-01T08:36:53;8.47;;;0.70;;
75691;SDS011;64307;52.508;6.090;2023-01-01T08:39:18;6.72;;;0.77;;
75691;SDS011;64307;52.508;6.090;2023-01-01T08:41:43;4.85;;;0.75;;
75691;SDS011;64307;52.508;6.090;2023-01-01T08:44:09;5.53;;;0.60;;
75691;SDS011;64307;52.508;6.090;2023-01-01T08:46:34;9.50;;;1.08;;
75691;SDS011;64307;52.508;6.090;2023-01-01T08:49:00;4.40;;;0.50;;
75691;SDS011;64307;52.508;6.090;2023-01-01T08:51:25;8.13;;;0.50;;
75691;SDS011;64307;52.508;6.090;2023-01-01T08:53:50;8.68;;;0.88;;
75691;SDS011;64307;52.508;6.090;2023-01-01T08:56:15;6.73;;;1.20;;
75691;SDS011;64307;52.508;6.090;2023-01-01T08:58:41;6.60;;;0.98;;
75691;SDS011;64307;52.508;6.090;2023-01-01T09:01:07;7.88;;;0.90;;
75691;SDS011;64307;52.508;6.090;2023-01-01T09:03:34;10.60;;;0.85;;
75691;SDS011;64307;52.508;6.090;2023-01-01T09:05:59;5.75;;;0.95;;
75691;SDS011;64307;52.508;6.090;2023-01-01T09:08:25;5.20;;;0.75;;
75691;SDS011;64307;52.508;6.090;2023-01-01T09:10:51;7.57;;;0.60;;
75691;SDS011;64307;52.508;6.090;2023-01-01T09:13:18;8.75;;;0.77;;
75691;SDS011;64307;52.508;6.090;2023-01-01T09:15:45;10.77;;;0.70;;
75691;SDS011;64307;52.508;6.090;2023-01-01T09:18:12;6.95;;;0.77;;
75691;SDS011;64307;52.508;6.090;2023-01-01T09:20:37;5.75;;;0.90;;
75691;SDS011;64307;52.508;6.090;2023-01-01T09:23:04;5.40;;;0.80;;
75691;SDS011;64307;52.508;6.090;2023-01-01T09:25:30;4.47;;;0.93;;
75691;SDS011;64307;52.508;6.090;2023-01-01T09:27:59;8.10;;;0.75;;
75691;SDS011;64307;52.508;6.090;2023-01-01T09:30:26;5.25;;;0.70;;
75691;SDS011;64307;52.508;6.090;2023-01-01T09:32:51;4.25;;;0.40;;
75691;SDS011;64307;52.508;6.090;2023-01-01T09:35:16;5.97;;;0.68;;
75691;SDS011;64307;52.508;6.090;2023-01-01T09:37:42;7.45;;;1.60;;
75691;SDS011;64307;52.508;6.090;2023-01-01T09:40:08;6.30;;;0.60;;
75691;SDS011;64307;52.508;6.090;2023-01-01T09:42:51;6.40;;;1.00;;
75691;SDS011;64307;52.508;6.090;2023-01-01T09:45:32;7.00;;;0.80;;
75691;SDS011;64307;52.508;6.090;2023-01-01T09:48:09;7.60;;;1.13;;
75691;SDS011;64307;52.508;6.090;2023-01-01T09:50:38;4.82;;;1.08;;
75691;SDS011;64307;52.508;6.090;2023-01-01T09:53:15;6.40;;;0.70;;
75691;SDS011;64307;52.508;6.090;2023-01-01T09:55:55;6.07;;;0.73;;
75691;SDS011;64307;52.508;6.090;2023-01-01T09:58:26;7.93;;;1.05;;
75691;SDS011;64307;52.508;6.090;2023-01-01T10:00:57;8.30;;;0.82;;
75691;SDS011;64307;52.508;6.090;2023-01-01T10:03:40;5.63;;;0.73;;
75691;SDS011;64307;52.508;6.090;2023-01-01T10:06:20;8.93;;;0.90;;
75691;SDS011;64307;52.508;6.090;2023-01-01T10:14:32;7.43;;;1.17;;
75691;SDS011;64307;52.508;6.090;2023-01-01T10:17:11;7.45;;;1.10;;
75691;SDS011;64307;52.508;6.090;2023-01-01T10:19:44;7.13;;;0.68;;
75691;SDS011;64307;52.508;6.090;2023-01-01T10:22:16;7.15;;;0.82;;
75691;SDS011;64307;52.508;6.090;2023-01-01T10:29:56;9.90;;;1.35;;
75691;SDS011;64307;52.508;6.090;2023-01-01T10:32:29;8.20;;;1.05;;
75691;SDS011;64307;52.508;6.090;2023-01-01T10:34:56;8.30;;;1.08;;
75691;SDS011;64307;52.508;6.090;2023-01-01T10:37:23;8.77;;;1.10;;
75691;SDS011;64307;52.508;6.090;2023-01-01T10:39:54;10.20;;;1.15;;
75691;SDS011;64307;52.508;6.090;2023-01-01T10:42:19;9.00;;;0.95;;
75691;SDS011;64307;52.508;6.090;2023-01-01T10:44:44;9.75;;;1.15;;
75691;SDS011;64307;52.508;6.090;2023-01-01T10:52:30;6.22;;;1.05;;
75691;SDS011;64307;52.508;6.090;2023-01-01T10:54:59;10.48;;;1.23;;
75691;SDS011;64307;52.508;6.090;2023-01-01T11:00:19;10.02;;;1.13;;
75691;SDS011;64307;52.508;6.090;2023-01-01T11:05:59;6.88;;;1.30;;
75691;SDS011;64307;52.508;6.090;2023-01-01T11:08:27;7.50;;;1.10;;
75691;SDS011;64307;52.508;6.090;2023-01-01T11:10:55;8.88;;;1.00;;
75691;SDS011;64307;52.508;6.090;2023-01-01T11:13:23;7.13;;;1.33;;
75691;SDS011;64307;52.508;6.090;2023-01-01T11:15:56;9.52;;;1.52;;
75691;SDS011;64307;52.508;6.090;2023-01-01T11:18:24;7.97;;;1.10;;
75691;SDS011;64307;52.508;6.090;2023-01-01T11:21:02;7.68;;;1.45;;
75691;SDS011;64307;52.508;6.090;2023-01-01T11:23:33;6.43;;;1.13;;
75691;SDS011;64307;52.508;6.090;2023-01-01T11:28:30;8.20;;;1.40;;
75691;SDS011;64307;52.508;6.090;2023-01-01T11:31:05;8.00;;;1.20;;
75691;SDS011;64307;52.508;6.090;2023-01-01T11:33:35;8.02;;;1.35;;
75691;SDS011;64307;52.508;6.090;2023-01-01T11:36:07;11.07;;;1.13;;
75691;SDS011;64307;52.508;6.090;2023-01-01T11:38:32;10.18;;;0.90;;
75691;SDS011;64307;52.508;6.090;2023-01-01T11:41:02;12.25;;;1.05;;
75691;SDS011;64307;52.508;6.090;2023-01-01T11:43:31;9.07;;;1.33;;
75691;SDS011;64307;52.508;6.090;2023-01-01T11:46:04;6.97;;;1.02;;
75691;SDS011;64307;52.508;6.090;2023-01-01T11:48:32;8.02;;;1.35;;
75691;SDS011;64307;52.508;6.090;2023-01-01T11:51:02;10.25;;;1.08;;
75691;SDS011;64307;52.508;6.090;2023-01-01T11:53:31;11.00;;;1.52;;
75691;SDS011;64307;52.508;6.090;2023-01-01T11:56:10;7.68;;;0.50;;
75691;SDS011;64307;52.508;6.090;2023-01-01T12:07:23;5.85;;;1.23;;
75691;SDS011;64307;52.508;6.090;2023-01-01T12:09:59;9.52;;;1.30;;
75691;SDS011;64307;52.508;6.090;2023-01-01T12:12:29;7.95;;;1.02;;
75691;SDS011;64307;52.508;6.090;2023-01-01T12:20:51;6.00;;;0.80;;
75691;SDS011;64307;52.508;6.090;2023-01-01T12:23:25;8.70;;;0.90;;
75691;SDS011;64307;52.508;6.090;2023-01-01T12:28:56;9.98;;;0.90;;
75691;SDS011;64307;52.508;6.090;2023-01-01T12:31:44;8.85;;;1.17;;
75691;SDS011;64307;52.508;6.090;2023-01-01T12:34:31;12.25;;;1.30;;
75691;SDS011;64307;52.508;6.090;2023-01-01T12:37:53;6.50;;;1.05;;
75691;SDS011;64307;52.508;6.090;2023-01-01T12:51:13;9.80;;;1.25;;
75691;SDS011;64307;52.508;6.090;2023-01-01T12:54:13;6.57;;;1.42;;
75691;SDS011;64307;52.508;6.090;2023-01-01T12:59:59;15.45;;;1.42;;
75691;SDS011;64307;52.508;6.090;2023-01-01T13:02:29;8.80;;;1.48;;
75691;SDS011;64307;52.508;6.090;2023-01-01T13:05:03;10.38;;;1.27;;
75691;SDS011;64307;52.508;6.090;2023-01-01T13:07:37;7.45;;;1.30;;
75691;SDS011;64307;52.508;6.090;2023-01-01T13:10:07;9.70;;;1.30;;
75691;SDS011;64307;52.508;6.090;2023-01-01T13:12:42;7.47;;;1.23;;
75691;SDS011;64307;52.508;6.090;2023-01-01T13:20:43;11.40;;;1.73;;
75691;SDS011;64307;52.508;6.090;2023-01-01T13:42:44;7.25;;;1.10;;
75691;SDS011;64307;52.508;6.090;2023-01-01T13:45:34;10.38;;;1.38;;
75691;SDS011;64307;52.508;6.090;2023-01-01T14:01:43;8.18;;;1.25;;
75691;SDS011;64307;52.508;6.090;2023-01-01T14:04:55;9.70;;;1.67;;
75691;SDS011;64307;52.508;6.090;2023-01-01T14:12:48;10.43;;;1.95;;
75691;SDS011;64307;52.508;6.090;2023-01-01T14:17:50;6.95;;;1.60;;
75691;SDS011;64307;52.508;6.090;2023-01-01T14:20:17;6.75;;;1.45;;
75691;SDS011;64307;52.508;6.090;2023-01-01T14:22:45;10.63;;;1.42;;
75691;SDS011;64307;52.508;6.090;2023-01-01T14:25:13;13.23;;;1.85;;
75691;SDS011;64307;52.508;6.090;2023-01-01T14:27:42;9.63;;;1.55;;
75691;SDS011;64307;52.508;6.090;2023-01-01T14:30:15;15.05;;;1.77;;
75691;SDS011;64307;52.508;6.090;2023-01-01T14:32:42;10.48;;;1.48;;
75691;SDS011;64307;52.508;6.090;2023-01-01T14:35:12;10.63;;;1.52;;
75691;SDS011;64307;52.508;6.090;2023-01-01T14:37:39;8.00;;;1.05;;
75691;SDS011;64307;52.508;6.090;2023-01-01T14:40:21;12.32;;;1.63;;
75691;SDS011;64307;52.508;6.090;2023-01-01T14:43:00;11.73;;;1.30;;
75691;SDS011;64307;52.508;6.090;2023-01-01T14:45:28;13.05;;;1.83;;
75691;SDS011;64307;52.508;6.090;2023-01-01T14:47:55;13.82;;;1.30;;
75691;SDS011;64307;52.508;6.090;2023-01-01T14:50:25;12.10;;;1.55;;
75691;SDS011;64307;52.508;6.090;2023-01-01T14:53:12;11.52;;;1.42;;
75691;SDS011;64307;52.508;6.090;2023-01-01T14:55:43;10.60;;;1.58;;
75691;SDS011;64307;52.508;6.090;2023-01-01T14:58:11;11.25;;;1.60;;
75691;SDS011;64307;52.508;6.090;2023-01-01T15:00:46;12.18;;;1.80;;
75691;SDS011;64307;52.508;6.090;2023-01-01T15:03:13;12.98;;;1.80;;
75691;SDS011;64307;52.508;6.090;2023-01-01T15:05:40;9.63;;;1.08;;
75691;SDS011;64307;52.508;6.090;2023-01-01T15:08:16;9.48;;;1.25;;
75691;SDS011;64307;52.508;6.090;2023-01-01T15:10:46;11.55;;;1.30;;
75691;SDS011;64307;52.508;6.090;2023-01-01T15:13:15;7.25;;;1.38;;
75691;SDS011;64307;52.508;6.090;2023-01-01T15:15:46;11.48;;;1.65;;
75691;SDS011;64307;52.508;6.090;2023-01-01T15:21:01;13.10;;;2.63;;
75691;SDS011;64307;52.508;6.090;2023-01-01T15:23:28;10.35;;;1.98;;
75691;SDS011;64307;52.508;6.090;2023-01-01T15:25:54;15.43;;;1.95;;
75691;SDS011;64307;52.508;6.090;2023-01-01T15:28:19;14.45;;;1.90;;
75691;SDS011;64307;52.508;6.090;2023-01-01T15:30:50;7.97;;;1.75;;
75691;SDS011;64307;52.508;6.090;2023-01-01T15:33:19;19.20;;;2.75;;
75691;SDS011;64307;52.508;6.090;2023-01-01T15:35:46;9.32;;;2.28;;
75691;SDS011;64307;52.508;6.090;2023-01-01T15:40:47;11.80;;;2.17;;
75691;SDS011;64307;52.508;6.090;2023-01-01T15:43:14;9.88;;;1.92;;
75691;SDS011;64307;52.508;6.090;2023-01-01T15:45:49;8.63;;;1.77;;
75691;SDS011;64307;52.508;6.090;2023-01-01T15:48:20;12.13;;;2.28;;
75691;SDS011;64307;52.508;6.090;2023-01-01T15:53:26;8.33;;;1.73;;
75691;SDS011;64307;52.508;6.090;2023-01-01T15:55:57;5.65;;;1.50;;
75691;SDS011;64307;52.508;6.090;2023-01-01T15:58:54;10.57;;;2.03;;
75691;SDS011;64307;52.508;6.090;2023-01-01T16:01:28;11.40;;;2.28;;
75691;SDS011;64307;52.508;6.090;2023-01-01T16:04:08;11.63;;;1.73;;
75691;SDS011;64307;52.508;6.090;2023-01-01T16:06:46;10.60;;;1.95;;
75691;SDS011;64307;52.508;6.090;2023-01-01T16:09:14;18.08;;;5.55;;
75691;SDS011;64307;52.508;6.090;2023-01-01T16:11:40;9.88;;;1.85;;
75691;SDS011;64307;52.508;6.090;2023-01-01T16:14:06;10.10;;;2.10;;
75691;SDS011;64307;52.508;6.090;2023-01-01T16:16:32;14.65;;;2.45;;
75691;SDS011;64307;52.508;6.090;2023-01-01T16:18:57;10.80;;;2.92;;
75691;SDS011;64307;52.508;6.090;2023-01-01T16:21:27;21.35;;;7.60;;
75691;SDS011;64307;52.508;6.090;2023-01-01T16:23:53;10.18;;;2.92;;
75691;SDS011;64307;52.508;6.090;2023-01-01T16:26:19;11.23;;;4.05;;
75691;SDS011;64307;52.508;6.090;2023-01-01T16:28:45;19.67;;;5.32;;
75691;SDS011;64307;52.508;6.090;2023-01-01T16:31:16;14.98;;;5.70;;
75691;SDS011;64307;52.508;6.090;2023-01-01T16:33:47;15.25;;;5.00;;
75691;SDS011;64307;52.508;6.090;2023-01-01T16:36:19;20.45;;;7.07;;
75691;SDS011;64307;52.508;6.090;2023-01-01T16:38:46;20.58;;;9.35;;
75691;SDS011;64307;52.508;6.090;2023-01-01T16:41:15;25.77;;;9.27;;
75691;SDS011;64307;52.508;6.090;2023-01-01T16:43:42;22.15;;;7.85;;
75691;SDS011;64307;52.508;6.090;2023-01-01T16:46:09;16.02;;;6.95;;
75691;SDS011;64307;52.508;6.090;2023-01-01T16:48:35;15.57;;;5.88;;
75691;SDS011;64307;52.508;6.090;2023-01-01T16:51:01;14.18;;;4.72;;
75691;SDS011;64307;52.508;6.090;2023-01-01T16:55:52;16.40;;;4.33;;
75691;SDS011;64307;52.508;6.090;2023-01-01T17:00:44;10.90;;;3.17;;
75691;SDS011;64307;52.508;6.090;2023-01-01T17:05:35;9.53;;;2.97;;
75691;SDS011;64307;52.508;6.090;2023-01-01T17:10:26;11.73;;;3.00;;
75691;SDS011;64307;52.508;6.090;2023-01-01T17:15:16;14.53;;;3.63;;
75691;SDS011;64307;52.508;6.090;2023-01-01T17:20:07;10.93;;;4.07;;
75691;SDS011;64307;52.508;6.090;2023-01-01T17:24:58;19.07;;;7.43;;
75691;SDS011;64307;52.508;6.090;2023-01-01T17:29:48;13.33;;;4.87;;
75691;SDS011;64307;52.508;6.090;2023-01-01T17:34:39;16.17;;;6.25;;
75691;SDS011;64307;52.508;6.090;2023-01-01T17:39:30;17.23;;;4.37;;
75691;SDS011;64307;52.508;6.090;2023-01-01T17:41:55;11.85;;;3.63;;
75691;SDS011;64307;52.508;6.090;2023-01-01T17:44:22;25.23;;;9.70;;
75691;SDS011;64307;52.508;6.090;2023-01-01T17:46:47;21.33;;;9.55;;
75691;SDS011;64307;52.508;6.090;2023-01-01T17:51:38;11.80;;;4.88;;
75691;SDS011;64307;52.508;6.090;2023-01-01T17:56:31;16.63;;;6.32;;
75691;SDS011;64307;52.508;6.090;2023-01-01T18:06:23;11.25;;;5.03;;